METAR AND TAF INFORMATION
METAR FOR UUBW
ADDS - METARS form results

(0125 UTC 06 March 2021)
Data provider http://aviationweather.gov/metar/data/
 
METAR text: UUBW 060100Z 30004MPS CAVOK M09/M11 Q1014 R30/110055 NOSIG
Conditions at: UUBW (MOSCOW/NOVOYE SR, RU) observed 0100 UTC 06 March 2021
Temperature: -9.0°C (16°F)
Dewpoint: -11.0°C (12°F) [RH = 85%]
Pressure (altimeter): 29.94 inches Hg (1014.0 mb)
Winds: from the WNW (300 degrees) at 9 MPH (8 knots; 4.1 m/s)
Visibility: 6 or more miles (10+ km)
Ceiling: ceiling and visibility are OK
Clouds: unknown
Weather: no significant weather observed at this time

METAR text: UUBW 060030Z 30002MPS CAVOK M09/M11 Q1014 R30/110055 NOSIG
Conditions at: UUBW (MOSCOW/NOVOYE SR, RU) observed 0030 UTC 06 March 2021
Temperature: -9.0°C (16°F)
Dewpoint: -11.0°C (12°F) [RH = 85%]
Pressure (altimeter): 29.94 inches Hg (1014.0 mb)
Winds: from the WNW (300 degrees) at 5 MPH (4 knots; 2.1 m/s)
Visibility: 6 or more miles (10+ km)
Ceiling: ceiling and visibility are OK
Clouds: unknown
Weather: no significant weather observed at this time

Forecast for: UUBW (MOSCOW/NOVOYE SR, RU)
Text: TAF UUBW 052256Z 0600/0624 27003MPS 6000 SCT020 TXM05/0612Z TNM14/0605Z
Forecast period: 0000 UTC 06 March 2021 to 0000 UTC 07 March 2021
Forecast type: FROM: standard forecast or significant change
Winds: from the W (270 degrees) at 7 MPH (6 knots; 3.1 m/s)
Visibility: 4 miles (6 km)
Ceiling: at least 12,000 feet AGL
Clouds: scattered clouds at 2000 feet AGL
Weather: no significant weather forecast for this period
Text: TEMPO 0600/0606 0300 FZFG FEW003
Forecast period: 0000 to 0600 UTC 06 March 2021
Forecast type: TEMPORARY: The following changes expected for less than half the time period
Visibility: 0.19 miles (0.31 km)
Ceiling: at least 12,000 feet AGL
Clouds: few clouds at 300 feet AGL
Weather: FZFG  (freezing fog)
Text: TEMPO 0609/0619 2100 -SHSN FEW006 BKN016CB
Forecast period: 0900 to 1900 UTC 06 March 2021
Forecast type: TEMPORARY: The following changes expected for less than half the time period
Visibility: 1.30 miles (2.09 km)
Ceiling: 1600 feet AGL
Clouds: few clouds at 600 feet AGL
broken clouds at 1600 feet AGL
Weather: -SHSN  (light snow showers)

 AIRPORT MAP

 RUNWAY INFORMATION

 AIRPORT FREQUENCIES

 AIRPORT NEAR NAVIGATION AIDS



2018 Air Astana Virtual Airline